sensor_id;sensor_type;location;lat;lon;timestamp;pressure;altitude;pressure_sealevel;temperature;humidity
77572;BME280;67214;47.454;18.966;2023-04-03T00:01:08;100111.97;;;6.15;61.92
77572;BME280;67214;47.454;18.966;2023-04-03T00:03:37;100111.50;;;6.15;62.05
77572;BME280;67214;47.454;18.966;2023-04-03T00:06:05;100103.61;;;6.01;62.39
77572;BME280;67214;47.454;18.966;2023-04-03T00:08:33;100110.38;;;6.05;61.68
77572;BME280;67214;47.454;18.966;2023-04-03T00:11:01;100118.29;;;5.98;62.12
77572;BME280;67214;47.454;18.966;2023-04-03T00:13:29;100109.08;;;5.98;62.25
77572;BME280;67214;47.454;18.966;2023-04-03T00:15:57;100114.91;;;6.03;61.78
77572;BME280;67214;47.454;18.966;2023-04-03T00:18:24;100121.07;;;6.16;61.58
77572;BME280;67214;47.454;18.966;2023-04-03T00:20:51;100125.13;;;6.15;61.84
77572;BME280;67214;47.454;18.966;2023-04-03T00:23:19;100109.51;;;6.12;61.28
77572;BME280;67214;47.454;18.966;2023-04-03T00:25:46;100116.59;;;6.11;61.19
77572;BME280;67214;47.454;18.966;2023-04-03T00:28:14;100126.64;;;6.04;61.27
77572;BME280;67214;47.454;18.966;2023-04-03T00:30:41;100124.94;;;6.03;61.76
77572;BME280;67214;47.454;18.966;2023-04-03T00:33:13;100122.95;;;6.21;61.98
77572;BME280;67214;47.454;18.966;2023-04-03T00:35:41;100113.55;;;6.17;62.13
77572;BME280;67214;47.454;18.966;2023-04-03T00:38:09;100122.61;;;6.06;61.29
77572;BME280;67214;47.454;18.966;2023-04-03T00:40:39;100119.86;;;6.07;60.84
77572;BME280;67214;47.454;18.966;2023-04-03T00:43:16;100120.52;;;6.04;61.67
77572;BME280;67214;47.454;18.966;2023-04-03T00:45:50;100123.54;;;6.05;61.64
77572;BME280;67214;47.454;18.966;2023-04-03T00:48:31;100128.90;;;5.96;60.99
77572;BME280;67214;47.454;18.966;2023-04-03T00:50:50;100123.19;;;5.90;60.84
77572;BME280;67214;47.454;18.966;2023-04-03T00:53:22;100125.89;;;5.88;60.66
77572;BME280;67214;47.454;18.966;2023-04-03T00:55:50;100129.96;;;5.87;60.54
77572;BME280;67214;47.454;18.966;2023-04-03T00:58:20;100128.14;;;5.87;60.88
77572;BME280;67214;47.454;18.966;2023-04-03T01:00:52;100120.23;;;5.80;60.70
77572;BME280;67214;47.454;18.966;2023-04-03T01:03:21;100134.04;;;5.84;60.75
77572;BME280;67214;47.454;18.966;2023-04-03T01:05:49;100130.94;;;5.84;60.66
77572;BME280;67214;47.454;18.966;2023-04-03T01:08:17;100125.16;;;5.86;61.13
77572;BME280;67214;47.454;18.966;2023-04-03T01:10:45;100123.98;;;5.83;60.05
77572;BME280;67214;47.454;18.966;2023-04-03T01:13:30;100131.61;;;5.81;60.63
77572;BME280;67214;47.454;18.966;2023-04-03T01:16:03;100127.46;;;5.84;60.14
77572;BME280;67214;47.454;18.966;2023-04-03T01:18:32;100128.32;;;5.77;60.42
77572;BME280;67214;47.454;18.966;2023-04-03T01:21:15;100118.64;;;5.78;60.56
77572;BME280;67214;47.454;18.966;2023-04-03T01:23:57;100132.16;;;5.79;60.39
77572;BME280;67214;47.454;18.966;2023-04-03T01:26:22;100117.69;;;5.72;60.37
77572;BME280;67214;47.454;18.966;2023-04-03T01:28:49;100131.97;;;5.75;60.24
77572;BME280;67214;47.454;18.966;2023-04-03T01:34:06;100132.55;;;5.66;60.51
77572;BME280;67214;47.454;18.966;2023-04-03T01:36:34;100134.02;;;5.62;59.86
77572;BME280;67214;47.454;18.966;2023-04-03T01:39:02;100138.47;;;5.62;60.07
77572;BME280;67214;47.454;18.966;2023-04-03T01:41:29;100136.19;;;5.56;60.06
77572;BME280;67214;47.454;18.966;2023-04-03T01:43:57;100141.18;;;5.60;60.48
77572;BME280;67214;47.454;18.966;2023-04-03T01:46:24;100149.73;;;5.50;60.32
77572;BME280;67214;47.454;18.966;2023-04-03T01:48:52;100143.62;;;5.49;60.90
77572;BME280;67214;47.454;18.966;2023-04-03T01:51:19;100156.66;;;5.44;60.84
77572;BME280;67214;47.454;18.966;2023-04-03T01:53:47;100150.35;;;5.46;60.67
77572;BME280;67214;47.454;18.966;2023-04-03T01:56:14;100160.79;;;5.41;61.00
77572;BME280;67214;47.454;18.966;2023-04-03T01:58:42;100159.94;;;5.40;60.84
77572;BME280;67214;47.454;18.966;2023-04-03T02:01:09;100161.06;;;5.43;60.46
77572;BME280;67214;47.454;18.966;2023-04-03T02:03:36;100160.33;;;5.48;60.42
77572;BME280;67214;47.454;18.966;2023-04-03T02:06:04;100156.97;;;5.53;60.30
77572;BME280;67214;47.454;18.966;2023-04-03T02:08:32;100157.70;;;5.48;60.61
77572;BME280;67214;47.454;18.966;2023-04-03T02:10:59;100150.55;;;5.50;60.18
77572;BME280;67214;47.454;18.966;2023-04-03T02:13:27;100151.78;;;5.45;60.16
77572;BME280;67214;47.454;18.966;2023-04-03T02:15:54;100157.31;;;5.54;60.22
77572;BME280;67214;47.454;18.966;2023-04-03T02:18:22;100161.18;;;5.56;59.95
77572;BME280;67214;47.454;18.966;2023-04-03T02:20:49;100167.29;;;5.49;60.27
77572;BME280;67214;47.454;18.966;2023-04-03T02:23:17;100165.13;;;5.42;60.65
77572;BME280;67214;47.454;18.966;2023-04-03T02:25:44;100166.70;;;5.44;60.31
77572;BME280;67214;47.454;18.966;2023-04-03T02:28:12;100150.81;;;5.32;60.95
77572;BME280;67214;47.454;18.966;2023-04-03T02:30:39;100160.66;;;5.28;60.65
77572;BME280;67214;47.454;18.966;2023-04-03T02:33:06;100172.61;;;5.34;60.96
77572;BME280;67214;47.454;18.966;2023-04-03T02:35:34;100169.94;;;5.27;61.25
77572;BME280;67214;47.454;18.966;2023-04-03T02:38:03;100176.23;;;5.24;60.63
77572;BME280;67214;47.454;18.966;2023-04-03T02:40:30;100168.16;;;5.27;61.31
77572;BME280;67214;47.454;18.966;2023-04-03T02:42:58;100173.75;;;5.14;60.91
77572;BME280;67214;47.454;18.966;2023-04-03T02:45:25;100175.64;;;5.12;61.39
77572;BME280;67214;47.454;18.966;2023-04-03T02:47:52;100169.13;;;5.03;61.32
77572;BME280;67214;47.454;18.966;2023-04-03T02:50:20;100171.03;;;5.08;61.43
77572;BME280;67214;47.454;18.966;2023-04-03T02:52:47;100173.66;;;5.08;61.18
77572;BME280;67214;47.454;18.966;2023-04-03T02:55:15;100170.95;;;4.94;61.23
77572;BME280;67214;47.454;18.966;2023-04-03T02:57:43;100178.66;;;4.97;61.79
77572;BME280;67214;47.454;18.966;2023-04-03T03:00:10;100168.27;;;5.03;62.06
77572;BME280;67214;47.454;18.966;2023-04-03T03:02:38;100173.14;;;5.02;61.48
77572;BME280;67214;47.454;18.966;2023-04-03T03:05:06;100184.95;;;4.95;61.30
77572;BME280;67214;47.454;18.966;2023-04-03T03:07:34;100183.30;;;5.01;61.52
77572;BME280;67214;47.454;18.966;2023-04-03T03:10:01;100175.57;;;4.98;61.12
77572;BME280;67214;47.454;18.966;2023-04-03T03:12:29;100179.02;;;4.91;61.60
77572;BME280;67214;47.454;18.966;2023-04-03T03:14:56;100192.49;;;4.85;62.08
77572;BME280;67214;47.454;18.966;2023-04-03T03:17:23;100195.90;;;4.87;61.84
77572;BME280;67214;47.454;18.966;2023-04-03T03:19:51;100195.05;;;4.87;61.88
77572;BME280;67214;47.454;18.966;2023-04-03T03:22:19;100196.80;;;4.79;61.79
77572;BME280;67214;47.454;18.966;2023-04-03T03:24:47;100195.56;;;4.78;62.33
77572;BME280;67214;47.454;18.966;2023-04-03T03:27:14;100192.58;;;4.77;62.02
77572;BME280;67214;47.454;18.966;2023-04-03T03:29:42;100185.72;;;4.81;62.24
77572;BME280;67214;47.454;18.966;2023-04-03T03:32:10;100186.75;;;4.79;62.33
77572;BME280;67214;47.454;18.966;2023-04-03T03:34:37;100187.58;;;4.72;63.19
77572;BME280;67214;47.454;18.966;2023-04-03T03:37:05;100184.06;;;4.64;63.21
77572;BME280;67214;47.454;18.966;2023-04-03T03:39:32;100185.84;;;4.64;63.15
77572;BME280;67214;47.454;18.966;2023-04-03T03:41:59;100188.58;;;4.54;63.24
77572;BME280;67214;47.454;18.966;2023-04-03T03:44:27;100179.11;;;4.51;62.97
77572;BME280;67214;47.454;18.966;2023-04-03T03:46:55;100178.26;;;4.51;62.92
77572;BME280;67214;47.454;18.966;2023-04-03T03:49:23;100173.97;;;4.41;63.51
77572;BME280;67214;47.454;18.966;2023-04-03T03:51:51;100193.16;;;4.35;63.86
77572;BME280;67214;47.454;18.966;2023-04-03T03:54:18;100183.08;;;4.27;63.99
77572;BME280;67214;47.454;18.966;2023-04-03T03:56:46;100181.30;;;4.28;64.01
77572;BME280;67214;47.454;18.966;2023-04-03T03:59:13;100172.72;;;4.24;64.24
77572;BME280;67214;47.454;18.966;2023-04-03T04:01:40;100178.29;;;4.27;64.42
77572;BME280;67214;47.454;18.966;2023-04-03T04:04:08;100180.13;;;4.25;64.33
77572;BME280;67214;47.454;18.966;2023-04-03T04:06:35;100178.75;;;4.26;64.26
77572;BME280;67214;47.454;18.966;2023-04-03T04:09:04;100180.81;;;4.28;63.93
77572;BME280;67214;47.454;18.966;2023-04-03T04:11:31;100172.86;;;4.30;64.22
77572;BME280;67214;47.454;18.966;2023-04-03T04:13:59;100170.31;;;4.28;64.37
77572;BME280;67214;47.454;18.966;2023-04-03T04:16:27;100179.84;;;4.22;64.06
77572;BME280;67214;47.454;18.966;2023-04-03T04:18:54;100185.48;;;4.23;63.96
77572;BME280;67214;47.454;18.966;2023-04-03T04:21:21;100186.02;;;4.21;64.21
77572;BME280;67214;47.454;18.966;2023-04-03T04:23:49;100191.66;;;4.22;64.48
77572;BME280;67214;47.454;18.966;2023-04-03T04:26:17;100192.36;;;4.17;64.24
77572;BME280;67214;47.454;18.966;2023-04-03T04:28:44;100195.13;;;4.23;64.10
77572;BME280;67214;47.454;18.966;2023-04-03T04:31:12;100192.69;;;4.19;63.88
77572;BME280;67214;47.454;18.966;2023-04-03T04:33:39;100189.49;;;4.21;64.45
77572;BME280;67214;47.454;18.966;2023-04-03T04:36:07;100188.44;;;4.33;63.48
77572;BME280;67214;47.454;18.966;2023-04-03T04:38:34;100187.87;;;4.28;64.16
77572;BME280;67214;47.454;18.966;2023-04-03T04:41:02;100196.84;;;4.24;64.05
77572;BME280;67214;47.454;18.966;2023-04-03T04:43:29;100202.13;;;4.31;63.55
77572;BME280;67214;47.454;18.966;2023-04-03T04:46:08;100196.48;;;4.30;63.50
77572;BME280;67214;47.454;18.966;2023-04-03T04:48:38;100191.92;;;4.33;63.81
77572;BME280;67214;47.454;18.966;2023-04-03T04:51:06;100195.64;;;4.29;63.52
77572;BME280;67214;47.454;18.966;2023-04-03T04:53:34;100199.47;;;4.24;63.40
77572;BME280;67214;47.454;18.966;2023-04-03T04:56:01;100203.47;;;4.22;63.72
77572;BME280;67214;47.454;18.966;2023-04-03T04:58:29;100188.47;;;4.24;63.56
77572;BME280;67214;47.454;18.966;2023-04-03T05:01:04;100214.19;;;4.26;63.40
77572;BME280;67214;47.454;18.966;2023-04-03T05:03:32;100201.59;;;4.24;63.36
77572;BME280;67214;47.454;18.966;2023-04-03T05:06:00;100203.62;;;4.28;63.36
77572;BME280;67214;47.454;18.966;2023-04-03T05:08:28;100203.73;;;4.33;63.95
77572;BME280;67214;47.454;18.966;2023-04-03T05:10:55;100205.39;;;4.27;63.53
77572;BME280;67214;47.454;18.966;2023-04-03T05:13:23;100212.41;;;4.27;63.61
77572;BME280;67214;47.454;18.966;2023-04-03T05:15:51;100207.14;;;4.35;63.65
77572;BME280;67214;47.454;18.966;2023-04-03T05:18:18;100207.20;;;4.34;63.74
77572;BME280;67214;47.454;18.966;2023-04-03T05:20:47;100212.50;;;4.41;63.50
77572;BME280;67214;47.454;18.966;2023-04-03T05:23:14;100196.21;;;4.43;63.80
77572;BME280;67214;47.454;18.966;2023-04-03T05:25:42;100195.39;;;4.49;63.23
77572;BME280;67214;47.454;18.966;2023-04-03T05:28:12;100202.35;;;4.50;62.73
77572;BME280;67214;47.454;18.966;2023-04-03T05:30:40;100205.69;;;4.61;62.77
77572;BME280;67214;47.454;18.966;2023-04-03T05:33:07;100199.86;;;4.72;62.54
77572;BME280;67214;47.454;18.966;2023-04-03T05:35:36;100197.98;;;4.74;62.31
77572;BME280;67214;47.454;18.966;2023-04-03T05:38:07;100199.08;;;4.69;62.52
77572;BME280;67214;47.454;18.966;2023-04-03T05:40:35;100193.47;;;4.68;62.19
77572;BME280;67214;47.454;18.966;2023-04-03T05:43:03;100202.09;;;4.71;62.07
77572;BME280;67214;47.454;18.966;2023-04-03T05:45:30;100206.29;;;4.66;62.28
77572;BME280;67214;47.454;18.966;2023-04-03T05:47:58;100206.39;;;4.64;61.99
77572;BME280;67214;47.454;18.966;2023-04-03T05:50:25;100200.25;;;4.73;62.22
77572;BME280;67214;47.454;18.966;2023-04-03T05:52:55;100213.59;;;4.77;61.96
77572;BME280;67214;47.454;18.966;2023-04-03T05:55:24;100216.11;;;4.78;61.70
77572;BME280;67214;47.454;18.966;2023-04-03T05:57:52;100217.47;;;4.69;62.04
77572;BME280;67214;47.454;18.966;2023-04-03T06:00:19;100211.29;;;4.71;61.76
77572;BME280;67214;47.454;18.966;2023-04-03T06:02:47;100221.66;;;4.65;62.13
77572;BME280;67214;47.454;18.966;2023-04-03T06:05:15;100224.92;;;4.61;62.61
77572;BME280;67214;47.454;18.966;2023-04-03T06:07:42;100230.31;;;4.67;62.30
77572;BME280;67214;47.454;18.966;2023-04-03T06:10:12;100224.73;;;4.89;61.70
77572;BME280;67214;47.454;18.966;2023-04-03T06:12:39;100238.54;;;4.92;61.26
77572;BME280;67214;47.454;18.966;2023-04-03T06:15:08;100232.64;;;4.96;61.51
77572;BME280;67214;47.454;18.966;2023-04-03T06:17:37;100242.45;;;5.08;60.89
77572;BME280;67214;47.454;18.966;2023-04-03T06:20:04;100233.59;;;5.02;60.83
77572;BME280;67214;47.454;18.966;2023-04-03T06:22:32;100240.27;;;5.00;60.50
77572;BME280;67214;47.454;18.966;2023-04-03T06:25:00;100248.77;;;5.12;60.63
77572;BME280;67214;47.454;18.966;2023-04-03T06:27:27;100248.56;;;5.08;60.70
77572;BME280;67214;47.454;18.966;2023-04-03T06:29:55;100250.13;;;5.27;60.19
77572;BME280;67214;47.454;18.966;2023-04-03T06:32:22;100248.45;;;5.55;59.68
77572;BME280;67214;47.454;18.966;2023-04-03T06:34:50;100253.12;;;5.80;59.14
77572;BME280;67214;47.454;18.966;2023-04-03T06:37:19;100251.56;;;5.92;58.87
77572;BME280;67214;47.454;18.966;2023-04-03T06:39:47;100246.22;;;5.93;58.86
77572;BME280;67214;47.454;18.966;2023-04-03T06:42:15;100251.30;;;5.96;58.77
77572;BME280;67214;47.454;18.966;2023-04-03T06:44:42;100250.94;;;6.02;59.00
77572;BME280;67214;47.454;18.966;2023-04-03T06:47:14;100250.75;;;6.05;57.84
77572;BME280;67214;47.454;18.966;2023-04-03T06:49:42;100239.09;;;6.02;57.76
77572;BME280;67214;47.454;18.966;2023-04-03T06:52:10;100260.51;;;6.03;58.38
77572;BME280;67214;47.454;18.966;2023-04-03T06:54:40;100258.92;;;5.94;58.00
77572;BME280;67214;47.454;18.966;2023-04-03T06:57:08;100258.27;;;5.97;58.15
77572;BME280;67214;47.454;18.966;2023-04-03T06:59:36;100271.42;;;6.04;58.26
77572;BME280;67214;47.454;18.966;2023-04-03T07:02:04;100264.95;;;6.17;57.67
77572;BME280;67214;47.454;18.966;2023-04-03T07:04:31;100272.38;;;6.25;57.65
77572;BME280;67214;47.454;18.966;2023-04-03T07:06:59;100268.06;;;6.38;56.71
77572;BME280;67214;47.454;18.966;2023-04-03T07:09:26;100276.35;;;6.39;56.56
77572;BME280;67214;47.454;18.966;2023-04-03T07:11:54;100268.98;;;6.44;57.57
77572;BME280;67214;47.454;18.966;2023-04-03T07:14:21;100269.58;;;6.56;57.11
77572;BME280;67214;47.454;18.966;2023-04-03T07:16:49;100285.35;;;6.84;57.50
77572;BME280;67214;47.454;18.966;2023-04-03T07:19:16;100282.13;;;6.86;55.46
77572;BME280;67214;47.454;18.966;2023-04-03T07:21:44;100279.58;;;6.85;55.49
77572;BME280;67214;47.454;18.966;2023-04-03T07:24:12;100275.34;;;6.96;55.32
77572;BME280;67214;47.454;18.966;2023-04-03T07:26:39;100281.42;;;7.11;55.09
77572;BME280;67214;47.454;18.966;2023-04-03T07:29:07;100272.62;;;7.18;54.92
77572;BME280;67214;47.454;18.966;2023-04-03T07:31:35;100270.11;;;7.16;55.36
77572;BME280;67214;47.454;18.966;2023-04-03T07:34:03;100279.95;;;7.54;53.80
77572;BME280;67214;47.454;18.966;2023-04-03T07:36:31;100285.58;;;7.74;52.34
77572;BME280;67214;47.454;18.966;2023-04-03T07:38:59;100282.84;;;7.76;52.12
77572;BME280;67214;47.454;18.966;2023-04-03T07:41:27;100286.52;;;7.93;52.03
77572;BME280;67214;47.454;18.966;2023-04-03T07:43:55;100286.63;;;8.04;51.63
77572;BME280;67214;47.454;18.966;2023-04-03T07:46:23;100289.86;;;8.27;53.33
77572;BME280;67214;47.454;18.966;2023-04-03T07:48:50;100295.62;;;8.34;51.86
77572;BME280;67214;47.454;18.966;2023-04-03T07:51:18;100301.13;;;8.44;51.18
77572;BME280;67214;47.454;18.966;2023-04-03T07:53:46;100302.85;;;8.50;51.33
77572;BME280;67214;47.454;18.966;2023-04-03T07:56:14;100287.56;;;8.35;51.46
77572;BME280;67214;47.454;18.966;2023-04-03T07:58:42;100296.02;;;8.53;50.87
77572;BME280;67214;47.454;18.966;2023-04-03T08:01:10;100294.70;;;8.53;51.01
77572;BME280;67214;47.454;18.966;2023-04-03T08:03:38;100298.95;;;8.74;50.04
77572;BME280;67214;47.454;18.966;2023-04-03T08:06:07;100301.66;;;8.79;49.47
77572;BME280;67214;47.454;18.966;2023-04-03T08:08:35;100307.25;;;8.88;49.82
77572;BME280;67214;47.454;18.966;2023-04-03T08:11:03;100307.32;;;8.99;49.30
77572;BME280;67214;47.454;18.966;2023-04-03T08:13:32;100310.24;;;8.58;49.53
77572;BME280;67214;47.454;18.966;2023-04-03T08:16:09;100307.34;;;8.55;50.41
77572;BME280;67214;47.454;18.966;2023-04-03T08:18:37;100307.69;;;8.69;50.97
77572;BME280;67214;47.454;18.966;2023-04-03T08:21:11;100299.34;;;8.75;50.26
77572;BME280;67214;47.454;18.966;2023-04-03T08:23:40;100305.57;;;8.74;49.56
77572;BME280;67214;47.454;18.966;2023-04-03T08:26:12;100310.70;;;8.70;49.85
77572;BME280;67214;47.454;18.966;2023-04-03T08:28:40;100311.27;;;8.17;50.24
77572;BME280;67214;47.454;18.966;2023-04-03T08:31:11;100314.68;;;8.57;49.58
77572;BME280;67214;47.454;18.966;2023-04-03T08:33:40;100310.63;;;8.46;50.12
77572;BME280;67214;47.454;18.966;2023-04-03T08:36:16;100311.23;;;8.75;49.83
77572;BME280;67214;47.454;18.966;2023-04-03T08:38:38;100303.69;;;8.63;50.15
77572;BME280;67214;47.454;18.966;2023-04-03T08:41:13;100303.32;;;9.11;48.74
77572;BME280;67214;47.454;18.966;2023-04-03T08:46:46;100311.98;;;9.55;48.75
77572;BME280;67214;47.454;18.966;2023-04-03T08:49:31;100312.06;;;9.72;48.23
77572;BME280;67214;47.454;18.966;2023-04-03T08:52:03;100311.30;;;9.94;49.06
77572;BME280;67214;47.454;18.966;2023-04-03T08:54:41;100303.25;;;10.01;47.90
77572;BME280;67214;47.454;18.966;2023-04-03T08:57:06;100304.48;;;10.13;46.74
77572;BME280;67214;47.454;18.966;2023-04-03T08:59:36;100304.28;;;10.16;47.26
77572;BME280;67214;47.454;18.966;2023-04-03T09:02:18;100303.81;;;10.28;47.09
77572;BME280;67214;47.454;18.966;2023-04-03T09:04:42;100293.59;;;10.40;46.20
77572;BME280;67214;47.454;18.966;2023-04-03T09:07:13;100308.31;;;10.39;46.51
77572;BME280;67214;47.454;18.966;2023-04-03T09:09:42;100311.42;;;10.33;45.54
77572;BME280;67214;47.454;18.966;2023-04-03T09:15:16;100302.05;;;10.51;45.12
77572;BME280;67214;47.454;18.966;2023-04-03T09:18:19;100311.44;;;10.60;45.75
77572;BME280;67214;47.454;18.966;2023-04-03T09:23:24;100299.25;;;10.97;44.79
77572;BME280;67214;47.454;18.966;2023-04-03T09:25:54;100303.11;;;10.98;43.78
77572;BME280;67214;47.454;18.966;2023-04-03T09:28:22;100312.16;;;11.07;43.64
77572;BME280;67214;47.454;18.966;2023-04-03T09:30:49;100312.02;;;11.14;46.49
77572;BME280;67214;47.454;18.966;2023-04-03T09:33:17;100322.52;;;11.15;43.91
77572;BME280;67214;47.454;18.966;2023-04-03T09:35:46;100315.77;;;11.06;43.26
77572;BME280;67214;47.454;18.966;2023-04-03T09:38:18;100313.97;;;11.12;44.56
77572;BME280;67214;47.454;18.966;2023-04-03T09:40:48;100315.54;;;10.64;45.58
77572;BME280;67214;47.454;18.966;2023-04-03T09:43:33;100313.09;;;11.23;44.17
77572;BME280;67214;47.454;18.966;2023-04-03T09:48:58;100312.38;;;11.15;43.51
77572;BME280;67214;47.454;18.966;2023-04-03T09:51:27;100305.13;;;11.23;43.10
77572;BME280;67214;47.454;18.966;2023-04-03T09:53:55;100301.11;;;11.34;43.60
77572;BME280;67214;47.454;18.966;2023-04-03T09:56:28;100299.67;;;11.30;42.51
77572;BME280;67214;47.454;18.966;2023-04-03T10:01:35;100295.09;;;11.26;42.96
77572;BME280;67214;47.454;18.966;2023-04-03T10:04:12;100296.72;;;11.12;42.50
77572;BME280;67214;47.454;18.966;2023-04-03T10:06:45;100294.28;;;11.20;43.32
77572;BME280;67214;47.454;18.966;2023-04-03T10:12:04;100298.30;;;11.03;42.06
77572;BME280;67214;47.454;18.966;2023-04-03T10:14:35;100295.17;;;10.54;43.22
77572;BME280;67214;47.454;18.966;2023-04-03T10:27:31;100292.38;;;10.33;43.79
77572;BME280;67214;47.454;18.966;2023-04-03T10:30:04;100302.66;;;10.08;45.67
77572;BME280;67214;47.454;18.966;2023-04-03T10:35:45;100310.95;;;10.04;45.84
77572;BME280;67214;47.454;18.966;2023-04-03T10:41:07;100298.04;;;10.40;44.43
77572;BME280;67214;47.454;18.966;2023-04-03T10:46:27;100294.58;;;10.50;44.89
77572;BME280;67214;47.454;18.966;2023-04-03T10:49:25;100291.80;;;10.57;45.09
77572;BME280;67214;47.454;18.966;2023-04-03T10:52:09;100285.05;;;10.53;44.59
77572;BME280;67214;47.454;18.966;2023-04-03T10:54:49;100286.50;;;10.46;45.09
77572;BME280;67214;47.454;18.966;2023-04-03T10:57:12;100283.35;;;10.41;44.58
77572;BME280;67214;47.454;18.966;2023-04-03T10:59:48;100287.19;;;10.32;45.35
77572;BME280;67214;47.454;18.966;2023-04-03T11:07:47;100296.75;;;10.05;45.04
77572;BME280;67214;47.454;18.966;2023-04-03T11:13:24;100300.44;;;9.86;44.24
77572;BME280;67214;47.454;18.966;2023-04-03T11:15:49;100296.41;;;9.74;44.67
77572;BME280;67214;47.454;18.966;2023-04-03T11:18:54;100292.56;;;9.78;44.20
77572;BME280;67214;47.454;18.966;2023-04-03T11:21:04;100294.87;;;9.77;44.74
77572;BME280;67214;47.454;18.966;2023-04-03T11:23:36;100289.58;;;9.77;44.80
77572;BME280;67214;47.454;18.966;2023-04-03T11:26:19;100289.78;;;9.74;44.94
77572;BME280;67214;47.454;18.966;2023-04-03T11:29:08;100278.38;;;9.79;45.25
77572;BME280;67214;47.454;18.966;2023-04-03T11:31:46;100285.23;;;9.76;45.56
77572;BME280;67214;47.454;18.966;2023-04-03T11:37:02;100275.99;;;9.82;44.80
77572;BME280;67214;47.454;18.966;2023-04-03T11:39:32;100276.20;;;9.79;45.68
77572;BME280;67214;47.454;18.966;2023-04-03T11:44:50;100264.75;;;9.78;46.33
77572;BME280;67214;47.454;18.966;2023-04-03T11:47:47;100271.16;;;9.87;45.42
77572;BME280;67214;47.454;18.966;2023-04-03T11:53:25;100267.67;;;9.87;45.25
77572;BME280;67214;47.454;18.966;2023-04-03T11:58:17;100269.45;;;9.69;43.68
77572;BME280;67214;47.454;18.966;2023-04-03T12:00:48;100266.70;;;9.76;43.70
77572;BME280;67214;47.454;18.966;2023-04-03T12:08:44;100262.77;;;9.99;43.89
77572;BME280;67214;47.454;18.966;2023-04-03T12:11:15;100260.00;;;10.00;44.56
77572;BME280;67214;47.454;18.966;2023-04-03T12:19:33;100256.68;;;9.69;43.85
77572;BME280;67214;47.454;18.966;2023-04-03T12:24:34;100258.27;;;9.77;43.78
77572;BME280;67214;47.454;18.966;2023-04-03T12:33:36;100249.16;;;9.92;44.63
77572;BME280;67214;47.454;18.966;2023-04-03T12:35:31;100242.89;;;9.99;43.86
77572;BME280;67214;47.454;18.966;2023-04-03T12:43:53;100253.47;;;9.88;44.52
77572;BME280;67214;47.454;18.966;2023-04-03T12:46:18;100250.37;;;9.94;43.23
77572;BME280;67214;47.454;18.966;2023-04-03T12:48:48;100244.81;;;9.86;42.95
77572;BME280;67214;47.454;18.966;2023-04-03T12:51:37;100248.16;;;9.76;43.39
77572;BME280;67214;47.454;18.966;2023-04-03T12:54:39;100245.27;;;9.79;43.17
77572;BME280;67214;47.454;18.966;2023-04-03T12:56:41;100238.91;;;9.82;44.07
77572;BME280;67214;47.454;18.966;2023-04-03T13:01:59;100233.05;;;10.12;43.43
77572;BME280;67214;47.454;18.966;2023-04-03T13:04:31;100237.45;;;10.46;42.45
77572;BME280;67214;47.454;18.966;2023-04-03T13:06:59;100231.77;;;10.56;42.39
77572;BME280;67214;47.454;18.966;2023-04-03T13:09:30;100213.91;;;10.64;41.83
77572;BME280;67214;47.454;18.966;2023-04-03T13:12:03;100211.66;;;10.43;43.57
77572;BME280;67214;47.454;18.966;2023-04-03T13:14:32;100215.61;;;10.48;42.07
77572;BME280;67214;47.454;18.966;2023-04-03T13:17:11;100217.42;;;10.76;43.21
77572;BME280;67214;47.454;18.966;2023-04-03T13:19:39;100209.42;;;10.81;42.15
77572;BME280;67214;47.454;18.966;2023-04-03T13:22:35;100209.31;;;10.77;42.07
77572;BME280;67214;47.454;18.966;2023-04-03T13:25:03;100212.08;;;10.81;42.88
77572;BME280;67214;47.454;18.966;2023-04-03T13:27:31;100204.74;;;10.73;41.01
77572;BME280;67214;47.454;18.966;2023-04-03T13:30:02;100196.45;;;10.61;41.60
77572;BME280;67214;47.454;18.966;2023-04-03T13:32:31;100210.44;;;10.63;41.63
77572;BME280;67214;47.454;18.966;2023-04-03T13:34:59;100205.14;;;10.41;43.10
77572;BME280;67214;47.454;18.966;2023-04-03T13:37:30;100190.56;;;10.47;42.18
77572;BME280;67214;47.454;18.966;2023-04-03T13:42:42;100191.64;;;10.28;42.00
77572;BME280;67214;47.454;18.966;2023-04-03T13:45:19;100196.71;;;10.25;42.39
77572;BME280;67214;47.454;18.966;2023-04-03T13:47:48;100204.05;;;10.16;42.88
77572;BME280;67214;47.454;18.966;2023-04-03T13:50:22;100203.05;;;10.11;41.78
77572;BME280;67214;47.454;18.966;2023-04-03T13:52:54;100197.75;;;10.11;41.83
77572;BME280;67214;47.454;18.966;2023-04-03T13:55:25;100186.58;;;10.19;42.48
77572;BME280;67214;47.454;18.966;2023-04-03T13:58:17;100185.63;;;10.25;42.20
77572;BME280;67214;47.454;18.966;2023-04-03T14:00:38;100190.67;;;10.40;42.03
77572;BME280;67214;47.454;18.966;2023-04-03T14:03:19;100179.73;;;10.39;41.79
77572;BME280;67214;47.454;18.966;2023-04-03T14:05:43;100176.47;;;10.30;41.22
77572;BME280;67214;47.454;18.966;2023-04-03T14:08:11;100181.63;;;10.31;41.76
77572;BME280;67214;47.454;18.966;2023-04-03T14:10:39;100166.33;;;10.40;42.50
77572;BME280;67214;47.454;18.966;2023-04-03T14:13:08;100177.66;;;10.37;41.97
77572;BME280;67214;47.454;18.966;2023-04-03T14:15:35;100180.20;;;10.38;42.15
77572;BME280;67214;47.454;18.966;2023-04-03T14:18:03;100171.64;;;10.46;42.71
77572;BME280;67214;47.454;18.966;2023-04-03T14:20:30;100169.36;;;10.47;42.05
77572;BME280;67214;47.454;18.966;2023-04-03T14:22:59;100170.67;;;10.41;42.02
77572;BME280;67214;47.454;18.966;2023-04-03T14:25:29;100177.30;;;10.41;43.27
77572;BME280;67214;47.454;18.966;2023-04-03T14:27:56;100170.54;;;10.48;43.02
77572;BME280;67214;47.454;18.966;2023-04-03T14:30:31;100170.20;;;10.47;42.79